Terminal Aerodrome Forecast
Issued by NWS Twin Cities, MN

Home | Current Version | Previous Version | Text Only | Print | Product List | Glossary On
Versions: 1 2 3 4 5 6 7 8 9 10 11 12 13 14 15 16 17 18 19
625
FTUS43 KMPX 240255 AAA
TAFSTC
TAF AMD
KSTC 240255Z 2403/2424 06005KT 2SM -RA BR OVC004
     FM240600 VRB03KT 3SM BR VCSH OVC005
     FM241300 02008KT 6SM BR OVC008
     FM241700 02010KT P6SM BKN013
     FM242000 02009KT P6SM SCT020 BKN050=

USA.gov is the U.S. government's official web portal to all federal, state and local government web resources and services.